PWSweather.com
Personal Weather Stations
Station Observations
AC5JC
Greenleaf Peninsula, Waco, Waco, TX 76710

Greenleaf Peninsula, WacoWaco, TX 76710

Lat: 31.565, Lon: -97.198

Elevation: 570

Station Type: Ambient WS-1400IP

http://ac5jc.dyndns.org

Latest ConditionsUpdated 8:55:00 PM CDT Sunday, Jun 17, 2018
Currently Today's Max Today's Min Today's Average
Temperature 83.8°F28.8°C 92.4°F33.6°C 75.9°F24.4°C 83.5°F28.6°C
Dew Point 71.3°F21.8°C 71.5°F21.9°C 66.3°F19.1°C 69.3°F20.7°C
Winds 4.4 mph ENE7.1 kmh ENE 11.5 mph -18.5 kmh - - 3.4 mph 5.5 kmh
Wind Gusts 7.4 mph11.9 kmh 27.5 mph44.3 kmh - -
Humidity 66% 83% 43% 64%
Pressure 29.33 in993.2 mb 29.38 in994.9 mb 29.28 in991.5 mb -
Hour Temp Dew Point Humidity Winds Wind Gusts Pressure Precip Precip Rate Daily Precip Total
08:55 PM 83.8°F28.8°C 71.3°F21.8°C 66% 4.4 mph ENE7.1 kmh ENE 7.4 mph11.9 kmh 29.33 in993.2 mb 0.00 in0.0 mm 0.00 in0.0 mm 0.00 in0.0 mm
08:50 PM 84.1°F28.9°C 71.5°F21.9°C 66% 2.3 mph E3.7 kmh E 2.5 mph4.0 kmh 29.33 in993.2 mb 0.00 in0.0 mm 0.00 in0.0 mm 0.00 in0.0 mm
08:45 PM 84.4°F29.1°C 71.4°F21.9°C 65% 2.4 mph E3.9 kmh E 9.8 mph15.8 kmh 29.32 in992.9 mb 0.00 in0.0 mm 0.00 in0.0 mm 0.00 in0.0 mm
08:40 PM 84.6°F29.2°C 71.4°F21.9°C 65% 5.2 mph E8.4 kmh E 7.4 mph11.9 kmh 29.32 in992.9 mb 0.00 in0.0 mm 0.00 in0.0 mm 0.00 in0.0 mm
08:35 PM 84.8°F29.3°C 71.2°F21.8°C 64% 3.3 mph SE5.3 kmh SE 7.4 mph11.9 kmh 29.32 in992.9 mb 0.00 in0.0 mm 0.00 in0.0 mm 0.00 in0.0 mm
08:30 PM 85.1°F29.5°C 70.6°F21.4°C 62% 6.3 mph E10.1 kmh E 12.3 mph19.8 kmh 29.32 in992.9 mb 0.00 in0.0 mm 0.00 in0.0 mm 0.00 in0.0 mm
08:25 PM 85.4°F29.7°C 70.4°F21.3°C 61% 5.4 mph E8.7 kmh E 9.8 mph15.8 kmh 29.32 in992.9 mb 0.00 in0.0 mm 0.00 in0.0 mm 0.00 in0.0 mm
08:20 PM 85.7°F29.8°C 70.6°F21.4°C 61% 4.0 mph SE6.4 kmh SE 9.8 mph15.8 kmh 29.32 in992.9 mb 0.00 in0.0 mm 0.00 in0.0 mm 0.00 in0.0 mm
08:15 PM 86.0°F30.0°C 70.5°F21.4°C 60% 4.4 mph E7.1 kmh E 7.4 mph11.9 kmh 29.31 in992.6 mb 0.00 in0.0 mm 0.00 in0.0 mm 0.00 in0.0 mm
08:10 PM 86.4°F30.2°C 70.4°F21.3°C 59% 4.9 mph SE7.9 kmh SE 7.4 mph11.9 kmh 29.32 in992.9 mb 0.00 in0.0 mm 0.00 in0.0 mm 0.00 in0.0 mm
08:05 PM 86.4°F30.2°C 70.0°F21.1°C 58% 4.4 mph SE7.1 kmh SE 7.4 mph11.9 kmh 29.31 in992.6 mb 0.00 in0.0 mm 0.00 in0.0 mm 0.00 in0.0 mm
08:00 PM 86.5°F30.3°C 69.2°F20.7°C 57% 3.7 mph ESE6.0 kmh ESE 9.8 mph15.8 kmh 29.31 in992.6 mb 0.00 in0.0 mm 0.00 in0.0 mm 0.00 in0.0 mm
07:55 PM 86.7°F30.4°C 69.0°F20.6°C 56% 3.8 mph SE6.1 kmh SE 7.4 mph11.9 kmh 29.31 in992.6 mb 0.00 in0.0 mm 0.00 in0.0 mm 0.00 in0.0 mm
07:50 PM 86.8°F30.4°C 68.5°F20.3°C 55% 7.4 mph ESE11.9 kmh ESE 15.0 mph24.1 kmh 29.30 in992.2 mb 0.00 in0.0 mm 0.00 in0.0 mm 0.00 in0.0 mm
07:45 PM 87.1°F30.6°C 68.4°F20.2°C 54% 8.8 mph ESE14.2 kmh ESE 15.0 mph24.1 kmh 29.30 in992.2 mb 0.00 in0.0 mm 0.00 in0.0 mm 0.00 in0.0 mm
07:40 PM 87.2°F30.7°C 68.5°F20.3°C 54% 5.7 mph SE9.2 kmh SE 9.8 mph15.8 kmh 29.30 in992.2 mb 0.00 in0.0 mm 0.00 in0.0 mm 0.00 in0.0 mm
07:35 PM 87.3°F30.7°C 69.1°F20.6°C 55% 9.0 mph E14.5 kmh E 15.0 mph24.1 kmh 29.29 in991.9 mb 0.00 in0.0 mm 0.00 in0.0 mm 0.00 in0.0 mm
07:30 PM 87.3°F30.7°C 69.2°F20.7°C 55% 9.7 mph SE15.6 kmh SE 17.4 mph28.0 kmh 29.29 in991.9 mb 0.00 in0.0 mm 0.00 in0.0 mm 0.00 in0.0 mm
07:25 PM 87.4°F30.8°C 69.3°F20.7°C 55% 9.2 mph SE14.8 kmh SE 17.4 mph28.0 kmh 29.29 in991.9 mb 0.00 in0.0 mm 0.00 in0.0 mm 0.00 in0.0 mm
07:20 PM 87.8°F31.0°C 69.0°F20.6°C 54% 10.1 mph SE16.3 kmh SE 19.9 mph32.0 kmh 29.29 in991.9 mb 0.00 in0.0 mm 0.00 in0.0 mm 0.00 in0.0 mm
07:15 PM 88.0°F31.1°C 69.8°F21.0°C 55% 6.2 mph SSE10.0 kmh SSE 7.4 mph11.9 kmh 29.29 in991.9 mb 0.00 in0.0 mm 0.00 in0.0 mm 0.00 in0.0 mm
07:10 PM 88.2°F31.2°C 70.4°F21.3°C 56% 5.6 mph E9.0 kmh E 9.8 mph15.8 kmh 29.28 in991.5 mb 0.00 in0.0 mm 0.00 in0.0 mm 0.00 in0.0 mm
07:05 PM 88.2°F31.2°C 70.1°F21.2°C 55% 8.9 mph ESE14.3 kmh ESE 15.0 mph24.1 kmh 29.29 in991.9 mb 0.00 in0.0 mm 0.00 in0.0 mm 0.00 in0.0 mm
07:00 PM 88.3°F31.3°C 70.4°F21.3°C 56% 6.8 mph E10.9 kmh E 12.3 mph19.8 kmh 29.29 in991.9 mb 0.00 in0.0 mm 0.00 in0.0 mm 0.00 in0.0 mm
06:55 PM 88.3°F31.3°C 69.6°F20.9°C 54% 4.6 mph SE7.4 kmh SE 7.4 mph11.9 kmh 29.28 in991.5 mb 0.00 in0.0 mm 0.00 in0.0 mm 0.00 in0.0 mm
06:50 PM 88.2°F31.2°C 68.5°F20.3°C 52% 9.5 mph E15.3 kmh E 17.4 mph28.0 kmh 29.29 in991.9 mb 0.00 in0.0 mm 0.00 in0.0 mm 0.00 in0.0 mm
06:45 PM 88.2°F31.2°C 68.3°F20.2°C 52% 5.0 mph E8.0 kmh E 9.8 mph15.8 kmh 29.28 in991.5 mb 0.00 in0.0 mm 0.00 in0.0 mm 0.00 in0.0 mm
06:40 PM 88.2°F31.2°C 68.6°F20.3°C 53% 6.4 mph ESE10.3 kmh ESE 12.3 mph19.8 kmh 29.28 in991.5 mb 0.00 in0.0 mm 0.00 in0.0 mm 0.00 in0.0 mm
06:35 PM 88.2°F31.2°C 68.9°F20.5°C 53% 6.1 mph ENE9.8 kmh ENE 12.3 mph19.8 kmh 29.28 in991.5 mb 0.00 in0.0 mm 0.00 in0.0 mm 0.00 in0.0 mm
06:30 PM 88.2°F31.2°C 69.3°F20.7°C 54% 6.4 mph E10.3 kmh E 12.3 mph19.8 kmh 29.28 in991.5 mb 0.00 in0.0 mm 0.00 in0.0 mm 0.00 in0.0 mm
06:25 PM 88.6°F31.4°C 69.8°F21.0°C 54% 9.2 mph E14.8 kmh E 15.0 mph24.1 kmh 29.29 in991.9 mb 0.00 in0.0 mm 0.00 in0.0 mm 0.00 in0.0 mm
06:20 PM 89.2°F31.8°C 70.8°F21.6°C 55% 3.5 mph E5.6 kmh E 7.4 mph11.9 kmh 29.29 in991.9 mb 0.00 in0.0 mm 0.00 in0.0 mm 0.00 in0.0 mm
06:15 PM 89.9°F32.2°C 70.5°F21.4°C 53% 8.8 mph E14.2 kmh E 15.0 mph24.1 kmh 29.29 in991.9 mb 0.00 in0.0 mm 0.00 in0.0 mm 0.00 in0.0 mm
06:10 PM 90.1°F32.3°C 70.6°F21.4°C 53% 6.9 mph E11.1 kmh E 15.0 mph24.1 kmh 29.29 in991.9 mb 0.00 in0.0 mm 0.00 in0.0 mm 0.00 in0.0 mm
06:05 PM 90.3°F32.4°C 70.8°F21.6°C 53% 7.5 mph SE12.1 kmh SE 17.4 mph28.0 kmh 29.29 in991.9 mb 0.00 in0.0 mm 0.00 in0.0 mm 0.00 in0.0 mm
06:00 PM 90.6°F32.6°C 70.5°F21.4°C 52% 7.0 mph E11.3 kmh E 9.8 mph15.8 kmh 29.29 in991.9 mb 0.00 in0.0 mm 0.00 in0.0 mm 0.00 in0.0 mm
05:55 PM 90.9°F32.7°C 70.8°F21.6°C 52% 4.7 mph S7.6 kmh S 9.8 mph15.8 kmh 29.29 in991.9 mb 0.00 in0.0 mm 0.00 in0.0 mm 0.00 in0.0 mm
05:50 PM 91.1°F32.8°C 69.2°F20.7°C 49% 11.5 mph E18.5 kmh E 27.5 mph44.3 kmh 29.29 in991.9 mb 0.00 in0.0 mm 0.00 in0.0 mm 0.00 in0.0 mm
05:45 PM 91.0°F32.8°C 68.5°F20.3°C 48% 4.3 mph ESE6.9 kmh ESE 9.8 mph15.8 kmh 29.29 in991.9 mb 0.00 in0.0 mm 0.00 in0.0 mm 0.00 in0.0 mm
05:40 PM 90.7°F32.6°C 68.8°F20.4°C 49% 2.9 mph E4.7 kmh E 7.4 mph11.9 kmh 29.30 in992.2 mb 0.00 in0.0 mm 0.00 in0.0 mm 0.00 in0.0 mm
05:35 PM 90.3°F32.4°C 68.6°F20.3°C 49% 5.1 mph E8.2 kmh E 12.3 mph19.8 kmh 29.29 in991.9 mb 0.00 in0.0 mm 0.00 in0.0 mm 0.00 in0.0 mm
05:30 PM 90.3°F32.4°C 68.0°F20.0°C 48% 7.2 mph E11.6 kmh E 15.0 mph24.1 kmh 29.29 in991.9 mb 0.00 in0.0 mm 0.00 in0.0 mm 0.00 in0.0 mm
05:25 PM 90.3°F32.4°C 67.9°F19.9°C 48% 5.3 mph ENE8.5 kmh ENE 9.8 mph15.8 kmh 29.29 in991.9 mb 0.00 in0.0 mm 0.00 in0.0 mm 0.00 in0.0 mm
05:20 PM 90.3°F32.4°C 68.5°F20.3°C 49% 3.6 mph E5.8 kmh E 7.4 mph11.9 kmh 29.30 in992.2 mb 0.00 in0.0 mm 0.00 in0.0 mm 0.00 in0.0 mm
05:15 PM 90.5°F32.5°C 68.1°F20.1°C 48% 8.1 mph E13.0 kmh E 15.0 mph24.1 kmh 29.30 in992.2 mb 0.00 in0.0 mm 0.00 in0.0 mm 0.00 in0.0 mm
05:10 PM 90.8°F32.7°C 68.7°F20.4°C 49% 4.0 mph E6.4 kmh E 12.3 mph19.8 kmh 29.30 in992.2 mb 0.00 in0.0 mm 0.00 in0.0 mm 0.00 in0.0 mm
05:05 PM 91.0°F32.8°C 69.7°F20.9°C 50% 4.0 mph SE6.4 kmh SE 9.8 mph15.8 kmh 29.30 in992.2 mb 0.00 in0.0 mm 0.00 in0.0 mm 0.00 in0.0 mm
05:00 PM 91.4°F33.0°C 71.3°F21.8°C 52% 3.9 mph ESE6.3 kmh ESE 9.8 mph15.8 kmh 29.30 in992.2 mb 0.00 in0.0 mm 0.00 in0.0 mm 0.00 in0.0 mm
04:55 PM 91.9°F33.3°C 71.4°F21.9°C 52% 5.5 mph SE8.9 kmh SE 12.3 mph19.8 kmh 29.30 in992.2 mb 0.00 in0.0 mm 0.00 in0.0 mm 0.00 in0.0 mm
04:50 PM 92.2°F33.4°C 70.9°F21.6°C 50% 5.5 mph ENE8.9 kmh ENE 7.4 mph11.9 kmh 29.30 in992.2 mb 0.00 in0.0 mm 0.00 in0.0 mm 0.00 in0.0 mm
04:45 PM 92.4°F33.6°C 69.8°F21.0°C 48% 8.3 mph ESE13.4 kmh ESE 12.3 mph19.8 kmh 29.30 in992.2 mb 0.00 in0.0 mm 0.00 in0.0 mm 0.00 in0.0 mm
04:40 PM 92.3°F33.5°C 68.3°F20.2°C 46% 4.2 mph E6.8 kmh E 12.3 mph19.8 kmh 29.30 in992.2 mb 0.00 in0.0 mm 0.00 in0.0 mm 0.00 in0.0 mm
04:35 PM 92.2°F33.4°C 67.1°F19.5°C 44% 2.4 mph E3.9 kmh E 4.9 mph7.9 kmh 29.30 in992.2 mb 0.00 in0.0 mm 0.00 in0.0 mm 0.00 in0.0 mm
04:30 PM 92.1°F33.4°C 66.3°F19.1°C 43% 0.4 mph E0.6 kmh E 2.5 mph4.0 kmh 29.30 in992.2 mb 0.00 in0.0 mm 0.00 in0.0 mm 0.00 in0.0 mm
04:25 PM 91.9°F33.3°C 67.5°F19.7°C 45% 3.6 mph SSE5.8 kmh SSE 7.4 mph11.9 kmh 29.30 in992.2 mb 0.00 in0.0 mm 0.00 in0.0 mm 0.00 in0.0 mm
04:20 PM 91.7°F33.2°C 67.1°F19.5°C 45% 3.2 mph E5.1 kmh E 7.4 mph11.9 kmh 29.30 in992.2 mb 0.00 in0.0 mm 0.00 in0.0 mm 0.00 in0.0 mm
04:15 PM 91.5°F33.1°C 67.3°F19.6°C 45% 3.7 mph S6.0 kmh S 9.8 mph15.8 kmh 29.30 in992.2 mb 0.00 in0.0 mm 0.00 in0.0 mm 0.00 in0.0 mm
04:10 PM 91.2°F32.9°C 66.7°F19.3°C 45% 3.1 mph E5.0 kmh E 9.8 mph15.8 kmh 29.30 in992.2 mb 0.00 in0.0 mm 0.00 in0.0 mm 0.00 in0.0 mm
04:05 PM 90.8°F32.7°C 67.9°F19.9°C 47% 3.4 mph SE5.5 kmh SE 7.4 mph11.9 kmh 29.30 in992.2 mb 0.00 in0.0 mm 0.00 in0.0 mm 0.00 in0.0 mm
04:00 PM 90.6°F32.6°C 68.0°F20.0°C 48% 5.0 mph SE8.0 kmh SE 9.8 mph15.8 kmh 29.31 in992.6 mb 0.00 in0.0 mm 0.00 in0.0 mm 0.00 in0.0 mm
03:55 PM 90.3°F32.4°C 68.1°F20.1°C 48% 3.6 mph SE5.8 kmh SE 7.4 mph11.9 kmh 29.31 in992.6 mb 0.00 in0.0 mm 0.00 in0.0 mm 0.00 in0.0 mm
03:50 PM 90.1°F32.3°C 68.7°F20.4°C 50% 4.2 mph ESE6.8 kmh ESE 7.4 mph11.9 kmh 29.31 in992.6 mb 0.00 in0.0 mm 0.00 in0.0 mm 0.00 in0.0 mm
03:45 PM 90.2°F32.3°C 69.0°F20.6°C 50% 1.5 mph NE2.4 kmh NE 4.9 mph7.9 kmh 29.31 in992.6 mb 0.00 in0.0 mm 0.00 in0.0 mm 0.00 in0.0 mm
03:40 PM 90.4°F32.4°C 67.1°F19.5°C 46% 2.5 mph NE4.0 kmh NE 4.9 mph7.9 kmh 29.30 in992.2 mb 0.00 in0.0 mm 0.00 in0.0 mm 0.00 in0.0 mm
03:35 PM 90.5°F32.5°C 68.0°F20.0°C 48% 0.8 mph NNE1.3 kmh NNE 4.9 mph7.9 kmh 29.31 in992.6 mb 0.00 in0.0 mm 0.00 in0.0 mm 0.00 in0.0 mm
03:30 PM 90.5°F32.5°C 69.2°F20.7°C 50% 0.9 mph NE1.4 kmh NE 2.5 mph4.0 kmh 29.30 in992.2 mb 0.00 in0.0 mm 0.00 in0.0 mm 0.00 in0.0 mm
03:25 PM 90.7°F32.6°C 70.5°F21.4°C 52% 0.7 mph NE1.1 kmh NE 4.9 mph7.9 kmh 29.32 in992.9 mb 0.00 in0.0 mm 0.00 in0.0 mm 0.00 in0.0 mm
03:20 PM 90.9°F32.7°C 71.0°F21.7°C 52% 2.0 mph NNE3.2 kmh NNE 4.9 mph7.9 kmh 29.32 in992.9 mb 0.00 in0.0 mm 0.00 in0.0 mm 0.00 in0.0 mm
03:15 PM 91.2°F32.9°C 70.1°F21.2°C 50% 2.7 mph NE4.3 kmh NE 7.4 mph11.9 kmh 29.32 in992.9 mb 0.00 in0.0 mm 0.00 in0.0 mm 0.00 in0.0 mm
03:10 PM 91.2°F32.9°C 70.2°F21.2°C 50% 3.6 mph ENE5.8 kmh ENE 7.4 mph11.9 kmh 29.32 in992.9 mb 0.00 in0.0 mm 0.00 in0.0 mm 0.00 in0.0 mm
03:05 PM 91.4°F33.0°C 69.8°F21.0°C 50% 5.9 mph E9.5 kmh E 7.4 mph11.9 kmh 29.31 in992.6 mb 0.00 in0.0 mm 0.00 in0.0 mm 0.00 in0.0 mm
03:00 PM 91.4°F33.0°C 68.1°F20.1°C 47% 6.9 mph NE11.1 kmh NE 12.3 mph19.8 kmh 29.32 in992.9 mb 0.00 in0.0 mm 0.00 in0.0 mm 0.00 in0.0 mm
02:55 PM 91.2°F32.9°C 67.4°F19.7°C 46% 4.8 mph E7.7 kmh E 15.0 mph24.1 kmh 29.31 in992.6 mb 0.00 in0.0 mm 0.00 in0.0 mm 0.00 in0.0 mm
02:50 PM 91.0°F32.8°C 67.0°F19.4°C 46% 2.4 mph ESE3.9 kmh ESE 9.8 mph15.8 kmh 29.32 in992.9 mb 0.00 in0.0 mm 0.00 in0.0 mm 0.00 in0.0 mm
02:45 PM 90.8°F32.7°C 66.6°F19.2°C 45% 3.9 mph ESE6.3 kmh ESE 4.9 mph7.9 kmh 29.32 in992.9 mb 0.00 in0.0 mm 0.00 in0.0 mm 0.00 in0.0 mm
02:40 PM 90.5°F32.5°C 66.9°F19.4°C 46% 0.8 mph SE1.3 kmh SE 2.5 mph4.0 kmh 29.33 in993.2 mb 0.00 in0.0 mm 0.00 in0.0 mm 0.00 in0.0 mm
02:35 PM 90.5°F32.5°C 68.2°F20.1°C 48% 1.7 mph E2.7 kmh E 4.9 mph7.9 kmh 29.32 in992.9 mb 0.00 in0.0 mm 0.00 in0.0 mm 0.00 in0.0 mm
02:30 PM 90.3°F32.4°C 68.1°F20.1°C 48% 4.1 mph E6.6 kmh E 4.9 mph7.9 kmh 29.32 in992.9 mb 0.00 in0.0 mm 0.00 in0.0 mm 0.00 in0.0 mm
02:25 PM 90.3°F32.4°C 68.1°F20.1°C 48% 2.6 mph E4.2 kmh E 4.9 mph7.9 kmh 29.33 in993.2 mb 0.00 in0.0 mm 0.00 in0.0 mm 0.00 in0.0 mm
02:20 PM 90.3°F32.4°C 67.8°F19.9°C 48% 2.0 mph NE3.2 kmh NE 7.4 mph11.9 kmh 29.32 in992.9 mb 0.00 in0.0 mm 0.00 in0.0 mm 0.00 in0.0 mm
02:15 PM 90.1°F32.3°C 67.3°F19.6°C 47% 4.7 mph SE7.6 kmh SE 7.4 mph11.9 kmh 29.32 in992.9 mb 0.00 in0.0 mm 0.00 in0.0 mm 0.00 in0.0 mm
02:10 PM 90.1°F32.3°C 68.2°F20.1°C 49% 2.8 mph ENE4.5 kmh ENE 4.9 mph7.9 kmh 29.33 in993.2 mb 0.00 in0.0 mm 0.00 in0.0 mm 0.00 in0.0 mm
02:05 PM 90.1°F32.3°C 68.3°F20.2°C 49% 7.2 mph NE11.6 kmh NE 9.8 mph15.8 kmh 29.33 in993.2 mb 0.00 in0.0 mm 0.00 in0.0 mm 0.00 in0.0 mm
02:00 PM 90.1°F32.3°C 68.9°F20.5°C 50% 2.6 mph E4.2 kmh E 7.4 mph11.9 kmh 29.33 in993.2 mb 0.00 in0.0 mm 0.00 in0.0 mm 0.00 in0.0 mm
01:55 PM 90.1°F32.3°C 68.3°F20.2°C 49% 6.4 mph E10.3 kmh E 12.3 mph19.8 kmh 29.33 in993.2 mb 0.00 in0.0 mm 0.00 in0.0 mm 0.00 in0.0 mm
01:50 PM 90.3°F32.4°C 68.1°F20.1°C 48% 3.6 mph E5.8 kmh E 9.8 mph15.8 kmh 29.34 in993.6 mb 0.00 in0.0 mm 0.00 in0.0 mm 0.00 in0.0 mm
01:45 PM 90.3°F32.4°C 68.3°F20.2°C 49% 3.6 mph E5.8 kmh E 4.9 mph7.9 kmh 29.34 in993.6 mb 0.00 in0.0 mm 0.00 in0.0 mm 0.00 in0.0 mm
01:40 PM 90.2°F32.3°C 68.1°F20.1°C 48% 2.5 mph E4.0 kmh E 4.9 mph7.9 kmh 29.34 in993.6 mb 0.00 in0.0 mm 0.00 in0.0 mm 0.00 in0.0 mm
01:35 PM 89.9°F32.2°C 68.3°F20.2°C 49% 5.1 mph SE8.2 kmh SE 9.8 mph15.8 kmh 29.34 in993.6 mb 0.00 in0.0 mm 0.00 in0.0 mm 0.00 in0.0 mm
01:30 PM 89.6°F32.0°C 68.0°F20.0°C 49% 0.6 mph NNE1.0 kmh NNE 2.5 mph4.0 kmh 29.34 in993.6 mb 0.00 in0.0 mm 0.00 in0.0 mm 0.00 in0.0 mm
01:25 PM 89.4°F31.9°C 68.0°F20.0°C 50% 3.0 mph ESE4.8 kmh ESE 7.4 mph11.9 kmh 29.34 in993.6 mb 0.00 in0.0 mm 0.00 in0.0 mm 0.00 in0.0 mm
01:20 PM 88.9°F31.6°C 67.8°F19.9°C 50% 2.2 mph E3.5 kmh E 7.4 mph11.9 kmh 29.35 in993.9 mb 0.00 in0.0 mm 0.00 in0.0 mm 0.00 in0.0 mm
01:15 PM 88.4°F31.3°C 67.1°F19.5°C 50% 4.7 mph NNE7.6 kmh NNE 9.8 mph15.8 kmh 29.35 in993.9 mb 0.00 in0.0 mm 0.00 in0.0 mm 0.00 in0.0 mm
01:10 PM 87.9°F31.1°C 67.9°F19.9°C 52% 2.1 mph SSE3.4 kmh SSE 4.9 mph7.9 kmh 29.35 in993.9 mb 0.00 in0.0 mm 0.00 in0.0 mm 0.00 in0.0 mm
01:05 PM 87.6°F30.9°C 67.5°F19.7°C 52% 1.6 mph E2.6 kmh E 4.9 mph7.9 kmh 29.35 in993.9 mb 0.00 in0.0 mm 0.00 in0.0 mm 0.00 in0.0 mm
01:00 PM 87.4°F30.8°C 68.0°F20.0°C 53% 4.7 mph E7.6 kmh E 12.3 mph19.8 kmh 29.36 in994.2 mb 0.00 in0.0 mm 0.00 in0.0 mm 0.00 in0.0 mm
12:55 PM 87.4°F30.8°C 67.8°F19.9°C 52% 2.5 mph ESE4.0 kmh ESE 9.8 mph15.8 kmh 29.35 in993.9 mb 0.00 in0.0 mm 0.00 in0.0 mm 0.00 in0.0 mm
12:50 PM 87.2°F30.7°C 68.6°F20.3°C 54% 1.9 mph S3.1 kmh S 7.4 mph11.9 kmh 29.36 in994.2 mb 0.00 in0.0 mm 0.00 in0.0 mm 0.00 in0.0 mm
12:45 PM 87.1°F30.6°C 68.9°F20.5°C 55% 3.6 mph ENE5.8 kmh ENE 7.4 mph11.9 kmh 29.36 in994.2 mb 0.00 in0.0 mm 0.00 in0.0 mm 0.00 in0.0 mm
12:40 PM 87.0°F30.6°C 68.8°F20.4°C 55% 3.0 mph NE4.8 kmh NE 7.4 mph11.9 kmh 29.36 in994.2 mb 0.00 in0.0 mm 0.00 in0.0 mm 0.00 in0.0 mm
12:35 PM 86.7°F30.4°C 69.0°F20.6°C 56% 2.8 mph E4.5 kmh E 4.9 mph7.9 kmh 29.37 in994.6 mb 0.00 in0.0 mm 0.00 in0.0 mm 0.00 in0.0 mm
12:30 PM 86.5°F30.3°C 68.7°F20.4°C 56% 4.8 mph E7.7 kmh E 9.8 mph15.8 kmh 29.36 in994.2 mb 0.00 in0.0 mm 0.00 in0.0 mm 0.00 in0.0 mm
12:25 PM 86.2°F30.1°C 68.2°F20.1°C 55% 2.0 mph ENE3.2 kmh ENE 2.5 mph4.0 kmh 29.36 in994.2 mb 0.00 in0.0 mm 0.00 in0.0 mm 0.00 in0.0 mm
12:20 PM 85.7°F29.8°C 67.6°F19.8°C 55% 2.7 mph E4.3 kmh E 4.9 mph7.9 kmh 29.36 in994.2 mb 0.00 in0.0 mm 0.00 in0.0 mm 0.00 in0.0 mm
12:15 PM 85.5°F29.7°C 68.5°F20.3°C 57% 3.6 mph E5.8 kmh E 4.9 mph7.9 kmh 29.37 in994.6 mb 0.00 in0.0 mm 0.00 in0.0 mm 0.00 in0.0 mm
12:10 PM 85.3°F29.6°C 68.2°F20.1°C 57% 3.5 mph SE5.6 kmh SE 9.8 mph15.8 kmh 29.37 in994.6 mb 0.00 in0.0 mm 0.00 in0.0 mm 0.00 in0.0 mm
12:05 PM 84.9°F29.4°C 68.7°F20.4°C 58% 3.1 mph ESE5.0 kmh ESE 7.4 mph11.9 kmh 29.36 in994.2 mb 0.00 in0.0 mm 0.00 in0.0 mm 0.00 in0.0 mm
12:00 PM 84.7°F29.3°C 69.2°F20.7°C 60% 5.3 mph E8.5 kmh E 9.8 mph15.8 kmh 29.37 in994.6 mb 0.00 in0.0 mm 0.00 in0.0 mm 0.00 in0.0 mm
11:55 AM 84.4°F29.1°C 68.5°F20.3°C 59% 1.1 mph SE1.8 kmh SE 4.9 mph7.9 kmh 29.37 in994.6 mb 0.00 in0.0 mm 0.00 in0.0 mm 0.00 in0.0 mm
11:50 AM 84.2°F29.0°C 68.4°F20.2°C 59% 2.1 mph E3.4 kmh E 4.9 mph7.9 kmh 29.36 in994.2 mb 0.00 in0.0 mm 0.00 in0.0 mm 0.00 in0.0 mm
11:45 AM 84.0°F28.9°C 68.2°F20.1°C 59% 3.3 mph ENE5.3 kmh ENE 7.4 mph11.9 kmh 29.37 in994.6 mb 0.00 in0.0 mm 0.00 in0.0 mm 0.00 in0.0 mm
11:40 AM 83.8°F28.8°C 69.1°F20.6°C 62% 2.4 mph SE3.9 kmh SE 7.4 mph11.9 kmh 29.36 in994.2 mb 0.00 in0.0 mm 0.00 in0.0 mm 0.00 in0.0 mm
11:35 AM 83.8°F28.8°C 69.5°F20.8°C 62% 4.4 mph SSE7.1 kmh SSE 9.8 mph15.8 kmh 29.38 in994.9 mb 0.00 in0.0 mm 0.00 in0.0 mm 0.00 in0.0 mm
11:30 AM 83.7°F28.7°C 69.1°F20.6°C 62% 3.8 mph SSE6.1 kmh SSE 9.8 mph15.8 kmh 29.37 in994.6 mb 0.00 in0.0 mm 0.00 in0.0 mm 0.00 in0.0 mm
11:25 AM 83.7°F28.7°C 68.8°F20.4°C 61% 3.0 mph SE4.8 kmh SE 4.9 mph7.9 kmh 29.37 in994.6 mb 0.00 in0.0 mm 0.00 in0.0 mm 0.00 in0.0 mm
11:20 AM 83.7°F28.7°C 69.3°F20.7°C 62% 1.7 mph S2.7 kmh S 2.5 mph4.0 kmh 29.37 in994.6 mb 0.00 in0.0 mm 0.00 in0.0 mm 0.00 in0.0 mm
11:15 AM 83.5°F28.6°C 69.5°F20.8°C 63% 2.2 mph SSE3.5 kmh SSE 4.9 mph7.9 kmh 29.38 in994.9 mb 0.00 in0.0 mm 0.00 in0.0 mm 0.00 in0.0 mm
11:10 AM 83.5°F28.6°C 70.4°F21.3°C 65% 0.3 mph ENE0.5 kmh ENE 2.5 mph4.0 kmh 29.37 in994.6 mb 0.00 in0.0 mm 0.00 in0.0 mm 0.00 in0.0 mm
11:05 AM 83.5°F28.6°C 70.4°F21.3°C 65% 0.6 mph S1.0 kmh S 4.9 mph7.9 kmh 29.38 in994.9 mb 0.00 in0.0 mm 0.00 in0.0 mm 0.00 in0.0 mm
11:00 AM 83.5°F28.6°C 70.2°F21.2°C 64% 2.6 mph SSE4.2 kmh SSE 4.9 mph7.9 kmh 29.38 in994.9 mb 0.00 in0.0 mm 0.00 in0.0 mm 0.00 in0.0 mm
10:55 AM 83.5°F28.6°C 70.5°F21.4°C 65% 2.2 mph S3.5 kmh S 4.9 mph7.9 kmh 29.38 in994.9 mb 0.00 in0.0 mm 0.00 in0.0 mm 0.00 in0.0 mm
10:50 AM 83.6°F28.7°C 70.6°F21.4°C 65% 2.9 mph S4.7 kmh S 7.4 mph11.9 kmh 29.38 in994.9 mb 0.00 in0.0 mm 0.00 in0.0 mm 0.00 in0.0 mm
10:45 AM 83.7°F28.7°C 70.5°F21.4°C 65% 3.5 mph SE5.6 kmh SE 7.4 mph11.9 kmh 29.37 in994.6 mb 0.00 in0.0 mm 0.00 in0.0 mm 0.00 in0.0 mm
10:40 AM 83.8°F28.8°C 70.5°F21.4°C 64% 2.4 mph ESE3.9 kmh ESE 4.9 mph7.9 kmh 29.37 in994.6 mb 0.00 in0.0 mm 0.00 in0.0 mm 0.00 in0.0 mm
10:35 AM 83.8°F28.8°C 70.2°F21.2°C 64% 3.5 mph SSE5.6 kmh SSE 7.4 mph11.9 kmh 29.37 in994.6 mb 0.00 in0.0 mm 0.00 in0.0 mm 0.00 in0.0 mm
10:30 AM 83.9°F28.8°C 70.5°F21.4°C 64% 3.2 mph SSE5.1 kmh SSE 4.9 mph7.9 kmh 29.37 in994.6 mb 0.00 in0.0 mm 0.00 in0.0 mm 0.00 in0.0 mm
10:25 AM 83.8°F28.8°C 70.1°F21.2°C 64% 2.8 mph SE4.5 kmh SE 7.4 mph11.9 kmh 29.38 in994.9 mb 0.00 in0.0 mm 0.00 in0.0 mm 0.00 in0.0 mm
10:20 AM 83.7°F28.7°C 70.2°F21.2°C 64% 2.8 mph ESE4.5 kmh ESE 7.4 mph11.9 kmh 29.37 in994.6 mb 0.00 in0.0 mm 0.00 in0.0 mm 0.00 in0.0 mm
10:15 AM 83.7°F28.7°C 69.9°F21.1°C 63% 4.2 mph E6.8 kmh E 7.4 mph11.9 kmh 29.37 in994.6 mb 0.00 in0.0 mm 0.00 in0.0 mm 0.00 in0.0 mm
10:10 AM 83.4°F28.6°C 69.1°F20.6°C 62% 6.0 mph E9.7 kmh E 9.8 mph15.8 kmh 29.37 in994.6 mb 0.00 in0.0 mm 0.00 in0.0 mm 0.00 in0.0 mm
10:05 AM 82.9°F28.3°C 69.0°F20.6°C 63% 1.6 mph SE2.6 kmh SE 4.9 mph7.9 kmh 29.36 in994.2 mb 0.00 in0.0 mm 0.00 in0.0 mm 0.00 in0.0 mm
10:00 AM 82.7°F28.2°C 68.3°F20.2°C 62% 3.8 mph E6.1 kmh E 7.4 mph11.9 kmh 29.36 in994.2 mb 0.00 in0.0 mm 0.00 in0.0 mm 0.00 in0.0 mm
09:55 AM 82.1°F27.8°C 68.2°F20.1°C 63% 3.7 mph SE6.0 kmh SE 7.4 mph11.9 kmh 29.36 in994.2 mb 0.00 in0.0 mm 0.00 in0.0 mm 0.00 in0.0 mm
09:50 AM 81.7°F27.6°C 68.2°F20.1°C 64% 5.2 mph ESE8.4 kmh ESE 7.4 mph11.9 kmh 29.36 in994.2 mb 0.00 in0.0 mm 0.00 in0.0 mm 0.00 in0.0 mm
09:45 AM 81.4°F27.4°C 69.3°F20.7°C 67% 2.7 mph ESE4.3 kmh ESE 7.4 mph11.9 kmh 29.37 in994.6 mb 0.00 in0.0 mm 0.00 in0.0 mm 0.00 in0.0 mm
09:40 AM 81.1°F27.3°C 69.3°F20.7°C 67% 4.6 mph ESE7.4 kmh ESE 7.4 mph11.9 kmh 29.37 in994.6 mb 0.00 in0.0 mm 0.00 in0.0 mm 0.00 in0.0 mm
09:35 AM 81.1°F27.3°C 69.5°F20.8°C 68% 3.0 mph ENE4.8 kmh ENE 9.8 mph15.8 kmh 29.36 in994.2 mb 0.00 in0.0 mm 0.00 in0.0 mm 0.00 in0.0 mm
09:30 AM 81.0°F27.2°C 70.0°F21.1°C 69% 3.3 mph E5.3 kmh E 7.4 mph11.9 kmh 29.36 in994.2 mb 0.00 in0.0 mm 0.00 in0.0 mm 0.00 in0.0 mm
09:25 AM 80.9°F27.2°C 69.8°F21.0°C 69% 5.0 mph ESE8.0 kmh ESE 12.3 mph19.8 kmh 29.37 in994.6 mb 0.00 in0.0 mm 0.00 in0.0 mm 0.00 in0.0 mm
09:20 AM 80.9°F27.2°C 70.7°F21.5°C 71% 2.0 mph SE3.2 kmh SE 4.9 mph7.9 kmh 29.36 in994.2 mb 0.00 in0.0 mm 0.00 in0.0 mm 0.00 in0.0 mm
09:15 AM 81.0°F27.2°C 70.1°F21.2°C 70% 4.5 mph SSE7.2 kmh SSE 9.8 mph15.8 kmh 29.37 in994.6 mb 0.00 in0.0 mm 0.00 in0.0 mm 0.00 in0.0 mm
09:10 AM 80.6°F27.0°C 69.8°F21.0°C 70% 3.4 mph E5.5 kmh E 7.4 mph11.9 kmh 29.36 in994.2 mb 0.00 in0.0 mm 0.00 in0.0 mm 0.00 in0.0 mm
09:05 AM 80.4°F26.9°C 70.0°F21.1°C 71% 2.5 mph SE4.0 kmh SE 4.9 mph7.9 kmh 29.37 in994.6 mb 0.00 in0.0 mm 0.00 in0.0 mm 0.00 in0.0 mm
09:00 AM 80.1°F26.7°C 69.9°F21.1°C 71% 3.6 mph E5.8 kmh E 9.8 mph15.8 kmh 29.36 in994.2 mb 0.00 in0.0 mm 0.00 in0.0 mm 0.00 in0.0 mm
08:55 AM 79.9°F26.6°C 69.5°F20.8°C 71% 2.8 mph SE4.5 kmh SE 7.4 mph11.9 kmh 29.36 in994.2 mb 0.00 in0.0 mm 0.00 in0.0 mm 0.00 in0.0 mm
08:50 AM 79.5°F26.4°C 68.9°F20.5°C 70% 2.2 mph ESE3.5 kmh ESE 9.8 mph15.8 kmh 29.36 in994.2 mb 0.00 in0.0 mm 0.00 in0.0 mm 0.00 in0.0 mm
08:45 AM 79.2°F26.2°C 68.8°F20.4°C 70% 1.6 mph SE2.6 kmh SE 4.9 mph7.9 kmh 29.36 in994.2 mb 0.00 in0.0 mm 0.00 in0.0 mm 0.00 in0.0 mm
08:40 AM 79.0°F26.1°C 69.5°F20.8°C 73% 0.9 mph ESE1.4 kmh ESE 2.5 mph4.0 kmh 29.36 in994.2 mb 0.00 in0.0 mm 0.00 in0.0 mm 0.00 in0.0 mm
08:35 AM 78.6°F25.9°C 69.6°F20.9°C 74% 3.2 mph SE5.1 kmh SE 7.4 mph11.9 kmh 29.36 in994.2 mb 0.00 in0.0 mm 0.00 in0.0 mm 0.00 in0.0 mm
08:30 AM 78.4°F25.8°C 69.2°F20.7°C 73% 2.7 mph SE4.3 kmh SE 4.9 mph7.9 kmh 29.36 in994.2 mb 0.00 in0.0 mm 0.00 in0.0 mm 0.00 in0.0 mm
08:25 AM 78.1°F25.6°C 69.1°F20.6°C 74% 2.5 mph ESE4.0 kmh ESE 4.9 mph7.9 kmh 29.36 in994.2 mb 0.00 in0.0 mm 0.00 in0.0 mm 0.00 in0.0 mm
08:20 AM 77.8°F25.4°C 69.0°F20.6°C 75% 2.5 mph SSE4.0 kmh SSE 4.9 mph7.9 kmh 29.35 in993.9 mb 0.00 in0.0 mm 0.00 in0.0 mm 0.00 in0.0 mm
08:15 AM 77.5°F25.3°C 68.7°F20.4°C 74% 3.1 mph E5.0 kmh E 7.4 mph11.9 kmh 29.35 in993.9 mb 0.00 in0.0 mm 0.00 in0.0 mm 0.00 in0.0 mm
08:10 AM 77.3°F25.2°C 68.7°F20.4°C 75% 1.3 mph ESE2.1 kmh ESE 4.9 mph7.9 kmh 29.35 in993.9 mb 0.00 in0.0 mm 0.00 in0.0 mm 0.00 in0.0 mm
08:05 AM 77.0°F25.0°C 69.1°F20.6°C 77% 0.9 mph E1.4 kmh E 4.9 mph7.9 kmh 29.35 in993.9 mb 0.00 in0.0 mm 0.00 in0.0 mm 0.00 in0.0 mm
08:00 AM 76.9°F24.9°C 69.1°F20.6°C 77% 2.6 mph ENE4.2 kmh ENE 4.9 mph7.9 kmh 29.34 in993.6 mb 0.00 in0.0 mm 0.00 in0.0 mm 0.00 in0.0 mm
07:55 AM 76.8°F24.9°C 69.0°F20.6°C 77% 2.0 mph ESE3.2 kmh ESE 4.9 mph7.9 kmh 29.35 in993.9 mb 0.00 in0.0 mm 0.00 in0.0 mm 0.00 in0.0 mm
07:50 AM 76.6°F24.8°C 68.9°F20.5°C 77% 2.2 mph E3.5 kmh E 4.9 mph7.9 kmh 29.34 in993.6 mb 0.00 in0.0 mm 0.00 in0.0 mm 0.00 in0.0 mm
07:45 AM 76.5°F24.7°C 69.5°F20.8°C 79% 0.6 mph NE1.0 kmh NE 2.5 mph4.0 kmh 29.34 in993.6 mb 0.00 in0.0 mm 0.00 in0.0 mm 0.00 in0.0 mm
07:40 AM 76.5°F24.7°C 70.0°F21.1°C 80% 0.2 mph E0.3 kmh E 2.5 mph4.0 kmh 29.34 in993.6 mb 0.00 in0.0 mm 0.00 in0.0 mm 0.00 in0.0 mm
07:35 AM 76.2°F24.6°C 70.2°F21.2°C 82% 0.4 mph SSE0.6 kmh SSE 2.5 mph4.0 kmh 29.34 in993.6 mb 0.00 in0.0 mm 0.00 in0.0 mm 0.00 in0.0 mm
07:30 AM 76.1°F24.5°C 70.2°F21.2°C 82% 0.8 mph E1.3 kmh E 2.5 mph4.0 kmh 29.34 in993.6 mb 0.00 in0.0 mm 0.00 in0.0 mm 0.00 in0.0 mm
07:25 AM 76.0°F24.4°C 70.2°F21.2°C 82% 1.2 mph E1.9 kmh E 4.9 mph7.9 kmh 29.34 in993.6 mb 0.00 in0.0 mm 0.00 in0.0 mm 0.00 in0.0 mm
07:20 AM 75.9°F24.4°C 70.4°F21.3°C 83% 0.8 mph SE1.3 kmh SE 4.9 mph7.9 kmh 29.34 in993.6 mb 0.00 in0.0 mm 0.00 in0.0 mm 0.00 in0.0 mm
07:15 AM 75.9°F24.4°C 70.4°F21.3°C 83% 0.9 mph E1.4 kmh E 2.5 mph4.0 kmh 29.34 in993.6 mb 0.00 in0.0 mm 0.00 in0.0 mm 0.00 in0.0 mm
07:10 AM 75.9°F24.4°C 70.4°F21.3°C 83% 0.8 mph SE1.3 kmh SE 2.5 mph4.0 kmh 29.34 in993.6 mb 0.00 in0.0 mm 0.00 in0.0 mm 0.00 in0.0 mm
07:05 AM 75.9°F24.4°C 70.4°F21.3°C 83% Calm Calm -- 29.34 in993.6 mb 0.00 in0.0 mm 0.00 in0.0 mm 0.00 in0.0 mm
07:00 AM 75.9°F24.4°C 70.4°F21.3°C 83% 0.7 mph ENE1.1 kmh ENE 2.5 mph4.0 kmh 29.34 in993.6 mb 0.00 in0.0 mm 0.00 in0.0 mm 0.00 in0.0 mm
06:55 AM 75.9°F24.4°C 70.4°F21.3°C 83% 0.5 mph E0.8 kmh E 2.5 mph4.0 kmh 29.33 in993.2 mb 0.00 in0.0 mm 0.00 in0.0 mm 0.00 in0.0 mm
06:50 AM 75.9°F24.4°C 70.4°F21.3°C 83% 0.1 mph E0.2 kmh E 2.5 mph4.0 kmh 29.34 in993.6 mb 0.00 in0.0 mm 0.00 in0.0 mm 0.00 in0.0 mm
06:45 AM 75.9°F24.4°C 70.4°F21.3°C 83% 0.1 mph SE0.2 kmh SE 2.5 mph4.0 kmh 29.33 in993.2 mb 0.00 in0.0 mm 0.00 in0.0 mm 0.00 in0.0 mm
06:40 AM 75.9°F24.4°C 70.4°F21.3°C 83% 0.7 mph E1.1 kmh E 2.5 mph4.0 kmh 29.33 in993.2 mb 0.00 in0.0 mm 0.00 in0.0 mm 0.00 in0.0 mm
06:35 AM 75.9°F24.4°C 70.4°F21.3°C 83% Calm Calm -- 29.33 in993.2 mb 0.00 in0.0 mm 0.00 in0.0 mm 0.00 in0.0 mm
06:30 AM 76.1°F24.5°C 70.5°F21.4°C 83% Calm Calm -- 29.33 in993.2 mb 0.00 in0.0 mm 0.00 in0.0 mm 0.00 in0.0 mm
06:25 AM 76.1°F24.5°C 70.5°F21.4°C 83% Calm Calm -- 29.33 in993.2 mb 0.00 in0.0 mm 0.00 in0.0 mm 0.00 in0.0 mm
06:20 AM 76.1°F24.5°C 70.5°F21.4°C 83% 0.2 mph S0.3 kmh S 2.5 mph4.0 kmh 29.33 in993.2 mb 0.00 in0.0 mm 0.00 in0.0 mm 0.00 in0.0 mm
06:15 AM 76.3°F24.6°C 70.4°F21.3°C 82% 0.1 mph E0.2 kmh E 2.5 mph4.0 kmh 29.33 in993.2 mb 0.00 in0.0 mm 0.00 in0.0 mm 0.00 in0.0 mm
06:10 AM 76.3°F24.6°C 70.7°F21.5°C 83% Calm Calm -- 29.33 in993.2 mb 0.00 in0.0 mm 0.00 in0.0 mm 0.00 in0.0 mm
06:05 AM 76.3°F24.6°C 70.7°F21.5°C 83% 0.2 mph E0.3 kmh E 2.5 mph4.0 kmh 29.33 in993.2 mb 0.00 in0.0 mm 0.00 in0.0 mm 0.00 in0.0 mm
06:00 AM 76.3°F24.6°C 70.5°F21.4°C 82% 0.2 mph E0.3 kmh E 2.5 mph4.0 kmh 29.33 in993.2 mb 0.00 in0.0 mm 0.00 in0.0 mm 0.00 in0.0 mm
05:55 AM 76.3°F24.6°C 70.4°F21.3°C 82% 0.1 mph E0.2 kmh E 2.5 mph4.0 kmh 29.33 in993.2 mb 0.00 in0.0 mm 0.00 in0.0 mm 0.00 in0.0 mm
05:50 AM 76.4°F24.7°C 70.5°F21.4°C 82% Calm Calm -- 29.33 in993.2 mb 0.00 in0.0 mm 0.00 in0.0 mm 0.00 in0.0 mm
05:45 AM 76.5°F24.7°C 70.3°F21.3°C 81% 0.3 mph SE0.5 kmh SE 2.5 mph4.0 kmh 29.33 in993.2 mb 0.00 in0.0 mm 0.00 in0.0 mm 0.00 in0.0 mm
05:40 AM 76.5°F24.7°C 70.2°F21.2°C 81% 0.3 mph ENE0.5 kmh ENE 2.5 mph4.0 kmh 29.33 in993.2 mb 0.00 in0.0 mm 0.00 in0.0 mm 0.00 in0.0 mm
05:35 AM 76.5°F24.7°C 70.5°F21.4°C 82% 0.8 mph E1.3 kmh E 4.9 mph7.9 kmh 29.33 in993.2 mb 0.00 in0.0 mm 0.00 in0.0 mm 0.00 in0.0 mm
05:30 AM 76.5°F24.7°C 70.4°F21.3°C 82% 0.7 mph ESE1.1 kmh ESE 2.5 mph4.0 kmh 29.33 in993.2 mb 0.00 in0.0 mm 0.00 in0.0 mm 0.00 in0.0 mm
05:25 AM 76.5°F24.7°C 70.6°F21.4°C 82% 1.2 mph S1.9 kmh S 4.9 mph7.9 kmh 29.33 in993.2 mb 0.00 in0.0 mm 0.00 in0.0 mm 0.00 in0.0 mm
05:20 AM 76.5°F24.7°C 70.6°F21.4°C 82% 0.3 mph S0.5 kmh S 2.5 mph4.0 kmh 29.33 in993.2 mb 0.00 in0.0 mm 0.00 in0.0 mm 0.00 in0.0 mm
05:15 AM 76.5°F24.7°C 70.6°F21.4°C 82% 1.3 mph SSE2.1 kmh SSE 4.9 mph7.9 kmh 29.33 in993.2 mb 0.00 in0.0 mm 0.00 in0.0 mm 0.00 in0.0 mm
05:10 AM 76.5°F24.7°C 70.4°F21.3°C 81% 1.9 mph S3.1 kmh S 4.9 mph7.9 kmh 29.33 in993.2 mb 0.00 in0.0 mm 0.00 in0.0 mm 0.00 in0.0 mm
05:05 AM 76.5°F24.7°C 70.2°F21.2°C 81% 0.9 mph SE1.4 kmh SE 4.9 mph7.9 kmh 29.33 in993.2 mb 0.00 in0.0 mm 0.00 in0.0 mm 0.00 in0.0 mm
05:00 AM 76.5°F24.7°C 70.2°F21.2°C 81% 0.7 mph S1.1 kmh S 2.5 mph4.0 kmh 29.33 in993.2 mb 0.00 in0.0 mm 0.00 in0.0 mm 0.00 in0.0 mm
04:55 AM 76.6°F24.8°C 70.3°F21.3°C 81% 1.4 mph SE2.3 kmh SE 2.5 mph4.0 kmh 29.32 in992.9 mb 0.00 in0.0 mm 0.00 in0.0 mm 0.00 in0.0 mm
04:50 AM 76.6°F24.8°C 70.3°F21.3°C 81% 0.6 mph SSE1.0 kmh SSE 4.9 mph7.9 kmh 29.32 in992.9 mb 0.00 in0.0 mm 0.00 in0.0 mm 0.00 in0.0 mm
04:45 AM 76.6°F24.8°C 70.4°F21.3°C 81% 1.1 mph S1.8 kmh S 2.5 mph4.0 kmh 29.32 in992.9 mb 0.00 in0.0 mm 0.00 in0.0 mm 0.00 in0.0 mm
04:40 AM 76.8°F24.9°C 70.5°F21.4°C 81% Calm Calm -- 29.32 in992.9 mb 0.00 in0.0 mm 0.00 in0.0 mm 0.00 in0.0 mm
04:35 AM 76.8°F24.9°C 70.5°F21.4°C 81% 0.1 mph SSW0.2 kmh SSW 2.5 mph4.0 kmh 29.32 in992.9 mb 0.00 in0.0 mm 0.00 in0.0 mm 0.00 in0.0 mm
04:30 AM 76.8°F24.9°C 70.5°F21.4°C 81% 0.2 mph S0.3 kmh S 2.5 mph4.0 kmh 29.33 in993.2 mb 0.00 in0.0 mm 0.00 in0.0 mm 0.00 in0.0 mm
04:25 AM 76.8°F24.9°C 70.5°F21.4°C 81% 0.4 mph S0.6 kmh S 2.5 mph4.0 kmh 29.32 in992.9 mb 0.00 in0.0 mm 0.00 in0.0 mm 0.00 in0.0 mm
04:20 AM 77.0°F25.0°C 70.4°F21.3°C 80% 1.1 mph S1.8 kmh S 2.5 mph4.0 kmh 29.32 in992.9 mb 0.00 in0.0 mm 0.00 in0.0 mm 0.00 in0.0 mm
04:15 AM 77.0°F25.0°C 70.0°F21.1°C 79% Calm Calm -- 29.32 in992.9 mb 0.00 in0.0 mm 0.00 in0.0 mm 0.00 in0.0 mm
04:10 AM 77.0°F25.0°C 69.6°F20.9°C 78% 0.3 mph SSE0.5 kmh SSE 2.5 mph4.0 kmh 29.32 in992.9 mb 0.00 in0.0 mm 0.00 in0.0 mm 0.00 in0.0 mm
04:05 AM 77.2°F25.1°C 69.5°F20.8°C 77% 0.1 mph S0.2 kmh S 2.5 mph4.0 kmh 29.32 in992.9 mb 0.00 in0.0 mm 0.00 in0.0 mm 0.00 in0.0 mm
04:00 AM 77.2°F25.1°C 69.4°F20.8°C 77% 0.8 mph S1.3 kmh S 2.5 mph4.0 kmh 29.31 in992.6 mb 0.00 in0.0 mm 0.00 in0.0 mm 0.00 in0.0 mm
03:55 AM 77.2°F25.1°C 69.3°F20.7°C 77% 1.2 mph S1.9 kmh S 4.9 mph7.9 kmh 29.31 in992.6 mb 0.00 in0.0 mm 0.00 in0.0 mm 0.00 in0.0 mm
03:50 AM 77.2°F25.1°C 69.0°F20.6°C 76% 1.4 mph SSE2.3 kmh SSE 4.9 mph7.9 kmh 29.31 in992.6 mb 0.00 in0.0 mm 0.00 in0.0 mm 0.00 in0.0 mm
03:45 AM 77.2°F25.1°C 69.0°F20.6°C 76% 1.6 mph SE2.6 kmh SE 4.9 mph7.9 kmh 29.31 in992.6 mb 0.00 in0.0 mm 0.00 in0.0 mm 0.00 in0.0 mm
03:40 AM 77.4°F25.2°C 69.0°F20.6°C 75% 4.4 mph SSE7.1 kmh SSE 7.4 mph11.9 kmh 29.31 in992.6 mb 0.00 in0.0 mm 0.00 in0.0 mm 0.00 in0.0 mm
03:35 AM 77.5°F25.3°C 68.9°F20.5°C 75% 1.6 mph S2.6 kmh S 4.9 mph7.9 kmh 29.31 in992.6 mb 0.00 in0.0 mm 0.00 in0.0 mm 0.00 in0.0 mm
03:30 AM 77.8°F25.4°C 69.2°F20.7°C 75% 2.8 mph SE4.5 kmh SE 4.9 mph7.9 kmh 29.31 in992.6 mb 0.00 in0.0 mm 0.00 in0.0 mm 0.00 in0.0 mm
03:25 AM 77.9°F25.5°C 69.1°F20.6°C 74% 5.5 mph SE8.9 kmh SE 9.8 mph15.8 kmh 29.30 in992.2 mb 0.00 in0.0 mm 0.00 in0.0 mm 0.00 in0.0 mm
03:20 AM 78.0°F25.6°C 69.0°F20.6°C 74% 4.8 mph SSE7.7 kmh SSE 9.8 mph15.8 kmh 29.31 in992.6 mb 0.00 in0.0 mm 0.00 in0.0 mm 0.00 in0.0 mm
03:15 AM 78.3°F25.7°C 69.3°F20.7°C 74% 4.1 mph S6.6 kmh S 7.4 mph11.9 kmh 29.31 in992.6 mb 0.00 in0.0 mm 0.00 in0.0 mm 0.00 in0.0 mm
03:10 AM 78.5°F25.8°C 69.5°F20.8°C 74% 2.8 mph SE4.5 kmh SE 4.9 mph7.9 kmh 29.31 in992.6 mb 0.00 in0.0 mm 0.00 in0.0 mm 0.00 in0.0 mm
03:05 AM 78.6°F25.9°C 69.3°F20.7°C 73% 2.1 mph SE3.4 kmh SE 4.9 mph7.9 kmh 29.31 in992.6 mb 0.00 in0.0 mm 0.00 in0.0 mm 0.00 in0.0 mm
03:00 AM 78.6°F25.9°C 69.2°F20.7°C 73% 3.6 mph SE5.8 kmh SE 7.4 mph11.9 kmh 29.31 in992.6 mb 0.00 in0.0 mm 0.00 in0.0 mm 0.00 in0.0 mm
02:55 AM 78.7°F25.9°C 69.3°F20.7°C 73% 1.4 mph S2.3 kmh S 2.5 mph4.0 kmh 29.31 in992.6 mb 0.00 in0.0 mm 0.00 in0.0 mm 0.00 in0.0 mm
02:50 AM 78.8°F26.0°C 69.4°F20.8°C 73% 2.8 mph SSE4.5 kmh SSE 4.9 mph7.9 kmh 29.31 in992.6 mb 0.00 in0.0 mm 0.00 in0.0 mm 0.00 in0.0 mm
02:45 AM 78.9°F26.1°C 69.5°F20.8°C 73% 4.2 mph SSE6.8 kmh SSE 7.4 mph11.9 kmh 29.31 in992.6 mb 0.00 in0.0 mm 0.00 in0.0 mm 0.00 in0.0 mm
02:40 AM 79.0°F26.1°C 69.3°F20.7°C 72% 5.8 mph S9.3 kmh S 7.4 mph11.9 kmh 29.31 in992.6 mb 0.00 in0.0 mm 0.00 in0.0 mm 0.00 in0.0 mm
02:35 AM 79.1°F26.2°C 69.2°F20.7°C 72% 2.3 mph SSE3.7 kmh SSE 7.4 mph11.9 kmh 29.31 in992.6 mb 0.00 in0.0 mm 0.00 in0.0 mm 0.00 in0.0 mm
02:30 AM 79.2°F26.2°C 69.0°F20.6°C 71% 3.2 mph SE5.1 kmh SE 7.4 mph11.9 kmh 29.30 in992.2 mb 0.00 in0.0 mm 0.00 in0.0 mm 0.00 in0.0 mm
02:25 AM 79.4°F26.3°C 69.2°F20.7°C 71% 3.7 mph SSE6.0 kmh SSE 7.4 mph11.9 kmh 29.31 in992.6 mb 0.00 in0.0 mm 0.00 in0.0 mm 0.00 in0.0 mm
02:20 AM 79.7°F26.5°C 69.1°F20.6°C 70% 4.0 mph SE6.4 kmh SE 7.4 mph11.9 kmh 29.31 in992.6 mb 0.00 in0.0 mm 0.00 in0.0 mm 0.00 in0.0 mm
02:15 AM 79.8°F26.6°C 69.1°F20.6°C 70% 2.9 mph SSE4.7 kmh SSE 9.8 mph15.8 kmh 29.31 in992.6 mb 0.00 in0.0 mm 0.00 in0.0 mm 0.00 in0.0 mm
02:10 AM 79.9°F26.6°C 69.2°F20.7°C 70% 3.6 mph SSE5.8 kmh SSE 7.4 mph11.9 kmh 29.31 in992.6 mb 0.00 in0.0 mm 0.00 in0.0 mm 0.00 in0.0 mm
02:05 AM 80.0°F26.7°C 69.1°F20.6°C 69% 6.6 mph SSE10.6 kmh SSE 9.8 mph15.8 kmh 29.31 in992.6 mb 0.00 in0.0 mm 0.00 in0.0 mm 0.00 in0.0 mm
02:00 AM 80.1°F26.7°C 69.0°F20.6°C 69% 5.7 mph SSE9.2 kmh SSE 12.3 mph19.8 kmh 29.31 in992.6 mb 0.00 in0.0 mm 0.00 in0.0 mm 0.00 in0.0 mm
01:55 AM 80.3°F26.8°C 69.2°F20.7°C 69% 4.6 mph SE7.4 kmh SE 9.8 mph15.8 kmh 29.31 in992.6 mb 0.00 in0.0 mm 0.00 in0.0 mm 0.00 in0.0 mm
01:50 AM 80.5°F26.9°C 69.4°F20.8°C 69% 3.8 mph SSE6.1 kmh SSE 7.4 mph11.9 kmh 29.31 in992.6 mb 0.00 in0.0 mm 0.00 in0.0 mm 0.00 in0.0 mm
01:45 AM 80.6°F27.0°C 69.3°F20.7°C 69% 6.3 mph S10.1 kmh S 12.3 mph19.8 kmh 29.31 in992.6 mb 0.00 in0.0 mm 0.00 in0.0 mm 0.00 in0.0 mm
01:40 AM 80.8°F27.1°C 69.2°F20.7°C 68% 6.6 mph SSE10.6 kmh SSE 12.3 mph19.8 kmh 29.31 in992.6 mb 0.00 in0.0 mm 0.00 in0.0 mm 0.00 in0.0 mm
01:35 AM 81.0°F27.2°C 69.2°F20.7°C 68% 5.6 mph SSE9.0 kmh SSE 9.8 mph15.8 kmh 29.31 in992.6 mb 0.00 in0.0 mm 0.00 in0.0 mm 0.00 in0.0 mm
01:30 AM 81.1°F27.3°C 69.2°F20.7°C 67% 5.8 mph SE9.3 kmh SE 9.8 mph15.8 kmh 29.31 in992.6 mb 0.00 in0.0 mm 0.00 in0.0 mm 0.00 in0.0 mm
01:25 AM 81.1°F27.3°C 69.1°F20.6°C 67% 7.4 mph SE11.9 kmh SE 9.8 mph15.8 kmh 29.31 in992.6 mb 0.00 in0.0 mm 0.00 in0.0 mm 0.00 in0.0 mm
01:20 AM 81.3°F27.4°C 69.0°F20.6°C 66% 3.8 mph SSE6.1 kmh SSE 7.4 mph11.9 kmh 29.31 in992.6 mb 0.00 in0.0 mm 0.00 in0.0 mm 0.00 in0.0 mm
01:15 AM 81.4°F27.4°C 68.9°F20.5°C 66% 3.4 mph SSE5.5 kmh SSE 7.4 mph11.9 kmh 29.31 in992.6 mb 0.00 in0.0 mm 0.00 in0.0 mm 0.00 in0.0 mm
01:10 AM 81.5°F27.5°C 68.8°F20.4°C 65% 2.9 mph S4.7 kmh S 4.9 mph7.9 kmh 29.31 in992.6 mb 0.00 in0.0 mm 0.00 in0.0 mm 0.00 in0.0 mm
01:05 AM 81.7°F27.6°C 68.8°F20.4°C 65% 3.4 mph S5.5 kmh S 7.4 mph11.9 kmh 29.31 in992.6 mb 0.00 in0.0 mm 0.00 in0.0 mm 0.00 in0.0 mm
01:00 AM 81.8°F27.7°C 68.9°F20.5°C 65% 6.0 mph SSE9.7 kmh SSE 9.8 mph15.8 kmh 29.31 in992.6 mb 0.00 in0.0 mm 0.00 in0.0 mm 0.00 in0.0 mm
12:55 AM 81.9°F27.7°C 68.6°F20.3°C 64% 6.7 mph SSE10.8 kmh SSE 12.3 mph19.8 kmh 29.32 in992.9 mb 0.00 in0.0 mm 0.00 in0.0 mm 0.00 in0.0 mm
12:50 AM 81.9°F27.7°C 68.5°F20.3°C 64% 5.5 mph SSE8.9 kmh SSE 9.8 mph15.8 kmh 29.32 in992.9 mb 0.00 in0.0 mm 0.00 in0.0 mm 0.00 in0.0 mm
12:45 AM 82.0°F27.8°C 68.6°F20.3°C 64% 4.9 mph SSE7.9 kmh SSE 7.4 mph11.9 kmh 29.31 in992.6 mb 0.00 in0.0 mm 0.00 in0.0 mm 0.00 in0.0 mm
12:40 AM 82.1°F27.8°C 68.4°F20.2°C 63% 3.7 mph SE6.0 kmh SE 9.8 mph15.8 kmh 29.31 in992.6 mb 0.00 in0.0 mm 0.00 in0.0 mm 0.00 in0.0 mm
12:35 AM 82.2°F27.9°C 68.3°F20.2°C 63% 5.9 mph S9.5 kmh S 12.3 mph19.8 kmh 29.31 in992.6 mb 0.00 in0.0 mm 0.00 in0.0 mm 0.00 in0.0 mm
12:30 AM 82.4°F28.0°C 68.5°F20.3°C 63% 6.4 mph SE10.3 kmh SE 15.0 mph24.1 kmh 29.32 in992.9 mb 0.00 in0.0 mm 0.00 in0.0 mm 0.00 in0.0 mm
12:25 AM 82.5°F28.1°C 68.6°F20.3°C 63% 5.2 mph S8.4 kmh S 15.0 mph24.1 kmh 29.32 in992.9 mb 0.00 in0.0 mm 0.00 in0.0 mm 0.00 in0.0 mm
12:20 AM 82.6°F28.1°C 68.5°F20.3°C 62% 6.1 mph SSE9.8 kmh SSE 9.8 mph15.8 kmh 29.31 in992.6 mb 0.00 in0.0 mm 0.00 in0.0 mm 0.00 in0.0 mm
12:15 AM 82.8°F28.2°C 68.4°F20.2°C 62% 5.0 mph SE8.0 kmh SE 9.8 mph15.8 kmh 29.31 in992.6 mb 0.00 in0.0 mm 0.00 in0.0 mm 0.00 in0.0 mm
12:10 AM 82.9°F28.3°C 68.5°F20.3°C 62% 3.0 mph SE4.8 kmh SE 7.4 mph11.9 kmh 29.31 in992.6 mb 0.00 in0.0 mm 0.00 in0.0 mm 0.00 in0.0 mm
12:05 AM 83.0°F28.3°C 68.6°F20.3°C 62% 5.9 mph SSE9.5 kmh SSE 12.3 mph19.8 kmh 29.31 in992.6 mb 0.00 in0.0 mm 0.00 in0.0 mm 0.00 in0.0 mm
12:00 AM 83.2°F28.4°C 68.3°F20.2°C 61% 7.0 mph SSE11.3 kmh SSE 12.3 mph19.8 kmh 29.32 in992.9 mb 0.00 in0.0 mm 0.00 in0.0 mm 0.00 in0.0 mm